createdAt,value
2018-05-06T00:01:49.824Z,97714.66
2018-05-06T00:04:18.625Z,97709.28
2018-05-06T00:06:48.169Z,97708.13
2018-05-06T00:09:16.986Z,97701.72
2018-05-06T00:11:45.809Z,97705.45
2018-05-06T00:14:14.544Z,97698.97
2018-05-06T00:16:44.139Z,97699.81
2018-05-06T00:19:12.890Z,97699.00
2018-05-06T00:21:41.645Z,97697.91
2018-05-06T00:24:12.233Z,97692.41
2018-05-06T00:26:41.453Z,97698.73
2018-05-06T00:29:12.072Z,97693.31
2018-05-06T00:31:41.504Z,97693.40
2018-05-06T00:34:12.155Z,97691.53
2018-05-06T00:36:41.524Z,97694.83
2018-05-06T00:39:10.270Z,97696.95
2018-05-06T00:41:39.106Z,97691.42
2018-05-06T00:44:07.881Z,97693.75
2018-05-06T00:46:36.633Z,97698.95
2018-05-06T00:49:06.168Z,97694.20
2018-05-06T00:51:34.933Z,97700.28
2018-05-06T00:54:15.330Z,97698.36
2018-05-06T00:56:44.087Z,97701.14
2018-05-06T00:59:12.862Z,97701.89
2018-05-06T01:01:41.837Z,97703.22
2018-05-06T01:04:11.678Z,97706.83
2018-05-06T01:06:40.533Z,97702.75
2018-05-06T01:09:09.322Z,97697.20
2018-05-06T01:11:38.162Z,97700.86
2018-05-06T01:14:06.981Z,97700.00
2018-05-06T01:16:35.796Z,97700.00
2018-05-06T01:19:04.681Z,97700.00
2018-05-06T01:21:34.196Z,97708.41
2018-05-06T01:24:02.972Z,97710.39
2018-05-06T01:26:31.737Z,97698.14
2018-05-06T01:29:00.482Z,97700.62
2018-05-06T01:31:29.985Z,97699.45
2018-05-06T01:33:58.770Z,97702.58
2018-05-06T01:36:27.494Z,97701.19
2018-05-06T01:38:56.282Z,97698.81
2018-05-06T01:41:25.805Z,97708.68
2018-05-06T01:43:54.559Z,97708.11
2018-05-06T01:46:23.360Z,97715.84
2018-05-06T01:48:52.124Z,97714.00
2018-05-06T01:51:20.884Z,97714.93
2018-05-06T01:53:50.411Z,97713.72
2018-05-06T01:56:19.158Z,97706.23
2018-05-06T01:58:47.933Z,97704.41
2018-05-06T02:01:16.661Z,97699.37
2018-05-06T02:03:45.425Z,97704.56
2018-05-06T02:06:14.194Z,97704.94
2018-05-06T02:08:42.926Z,97713.87
2018-05-06T02:11:12.456Z,97706.05
2018-05-06T02:13:42.300Z,97708.47
2018-05-06T02:16:11.051Z,97712.42
2018-05-06T02:18:39.884Z,97716.11
2018-05-06T02:21:08.657Z,97718.38
2018-05-06T02:23:37.423Z,97713.80
2018-05-06T02:26:06.149Z,97713.95
2018-05-06T02:28:34.907Z,97720.33
2018-05-06T02:31:04.134Z,97715.34
2018-05-06T02:33:32.921Z,97708.77
2018-05-06T02:36:01.661Z,97714.64
2018-05-06T02:38:30.402Z,97713.16
2018-05-06T02:40:59.151Z,97707.99
2018-05-06T02:43:27.934Z,97713.27
2018-05-06T02:45:56.701Z,97714.70
2018-05-06T02:48:25.430Z,97724.54
2018-05-06T02:50:54.172Z,97718.74
2018-05-06T02:53:23.728Z,97719.70
2018-05-06T02:55:52.515Z,97720.03
2018-05-06T02:58:21.258Z,97720.00
2018-05-06T03:00:50.013Z,97722.06
2018-05-06T03:03:18.880Z,97712.19
2018-05-06T03:05:47.650Z,97714.07
2018-05-06T03:08:16.388Z,97709.16
2018-05-06T03:10:45.171Z,97710.31
2018-05-06T03:13:13.934Z,97710.59
2018-05-06T03:15:42.717Z,97706.76
2018-05-06T03:18:11.515Z,97706.11
2018-05-06T03:20:40.253Z,97704.75
2018-05-06T03:23:08.980Z,97698.34
2018-05-06T03:25:37.901Z,97692.96
2018-05-06T03:28:06.706Z,97698.79
2018-05-06T03:30:35.448Z,97703.55
2018-05-06T03:33:04.972Z,97703.14
2018-05-06T03:35:33.721Z,97711.53
2018-05-06T03:38:02.520Z,97715.69
2018-05-06T03:40:32.083Z,97712.95
2018-05-06T03:43:00.868Z,97721.09
2018-05-06T03:45:29.629Z,97718.28
2018-05-06T03:47:59.152Z,97714.82
2018-05-06T03:50:27.949Z,97710.77
2018-05-06T03:52:56.792Z,97721.16
2018-05-06T03:55:25.637Z,97720.91
2018-05-06T03:58:06.012Z,97724.31
2018-05-06T04:00:42.217Z,97725.73
2018-05-06T04:03:11.752Z,97730.50
2018-05-06T04:05:40.590Z,97733.26
2018-05-06T04:08:09.308Z,97730.41
2018-05-06T04:10:38.199Z,97744.11
2018-05-06T04:13:06.941Z,97744.40
2018-05-06T04:15:35.772Z,97754.32
2018-05-06T04:18:04.567Z,97746.36
2018-05-06T04:20:33.357Z,97754.69
2018-05-06T04:23:02.170Z,97755.63
2018-05-06T04:25:30.980Z,97759.49
2018-05-06T04:27:59.741Z,97751.83
2018-05-06T04:30:28.531Z,97752.45
2018-05-06T04:32:58.048Z,97755.94
2018-05-06T04:35:26.859Z,97755.42
2018-05-06T04:37:55.726Z,97756.84
2018-05-06T04:40:24.554Z,97771.69
2018-05-06T04:42:54.184Z,97770.47
2018-05-06T04:45:22.945Z,97774.30
2018-05-06T04:47:51.813Z,97774.53
2018-05-06T04:50:20.572Z,97772.16
2018-05-06T04:52:50.091Z,97770.78
2018-05-06T04:55:18.835Z,97772.80
2018-05-06T04:57:47.591Z,97773.84
2018-05-06T05:00:16.504Z,97772.62
2018-05-06T05:02:45.242Z,97778.63
2018-05-06T05:05:14.037Z,97782.13
2018-05-06T05:07:43.659Z,97780.92
2018-05-06T05:10:13.515Z,97785.52
2018-05-06T05:12:42.243Z,97786.22
2018-05-06T05:15:12.496Z,97781.92
2018-05-06T05:17:41.276Z,97783.30
2018-05-06T05:20:10.059Z,97782.67
2018-05-06T05:22:38.808Z,97793.89
2018-05-06T05:25:08.348Z,97790.10
2018-05-06T05:27:37.156Z,97781.24
2018-05-06T05:30:06.334Z,97785.33
2018-05-06T05:32:35.116Z,97786.33
2018-05-06T05:35:04.659Z,97788.92
2018-05-06T05:37:34.625Z,97783.73
2018-05-06T05:40:03.368Z,97787.48
2018-05-06T05:42:32.152Z,97784.16
2018-05-06T05:45:01.660Z,97780.70
2018-05-06T05:47:31.170Z,97772.66
2018-05-06T05:49:59.948Z,97774.81
2018-05-06T05:52:28.726Z,97774.13
2018-05-06T05:54:57.476Z,97780.42
2018-05-06T05:57:26.213Z,97772.17
2018-05-06T05:59:54.966Z,97771.25
2018-05-06T06:02:23.706Z,97776.12
2018-05-06T06:04:53.502Z,97778.13
2018-05-06T06:07:22.567Z,97777.61
2018-05-06T06:09:52.963Z,97779.42
2018-05-06T06:12:21.715Z,97778.42
2018-05-06T06:14:51.501Z,97783.65
2018-05-06T06:17:20.277Z,97777.88
2018-05-06T06:19:49.788Z,97783.36
2018-05-06T06:22:19.337Z,97787.38
2018-05-06T06:24:48.115Z,97781.48
2018-05-06T06:27:16.846Z,97784.50
2018-05-06T06:29:45.600Z,97784.50
2018-05-06T06:32:14.438Z,97782.86
2018-05-06T06:34:45.833Z,97792.53
2018-05-06T06:37:14.582Z,97786.12
2018-05-06T06:39:44.866Z,97785.28
2018-05-06T06:42:14.288Z,97776.55
2018-05-06T06:44:44.305Z,97777.10
2018-05-06T06:47:13.068Z,97775.81
2018-05-06T06:49:42.468Z,97778.09
2018-05-06T06:52:11.234Z,97771.66
2018-05-06T06:54:39.985Z,97779.47
2018-05-06T06:57:09.538Z,97774.48
2018-05-06T06:59:39.037Z,97773.98
2018-05-06T07:02:07.762Z,97774.20
2018-05-06T07:04:36.508Z,97774.55
2018-05-06T07:07:08.171Z,97780.25
2018-05-06T07:09:37.750Z,97776.06
2018-05-06T07:12:08.055Z,97767.73
2018-05-06T07:14:42.153Z,97769.74
2018-05-06T07:17:10.903Z,97766.36
2018-05-06T07:19:39.875Z,97762.89
2018-05-06T07:22:09.424Z,97755.50
2018-05-06T07:24:38.988Z,97754.63
2018-05-06T07:27:08.314Z,97753.42
2018-05-06T07:29:38.315Z,97752.05
2018-05-06T07:32:07.103Z,97760.10
2018-05-06T07:34:36.665Z,97757.70
2018-05-06T07:37:05.449Z,97762.53
2018-05-06T07:39:34.263Z,97755.87
2018-05-06T07:42:03.022Z,97757.58
2018-05-06T07:44:31.789Z,97743.73
2018-05-06T07:47:02.268Z,97750.08
2018-05-06T07:49:31.549Z,97750.48
2018-05-06T07:52:01.256Z,97756.75
2018-05-06T07:54:30.897Z,97760.52
2018-05-06T07:56:59.652Z,97757.50
2018-05-06T07:59:29.547Z,97759.53
2018-05-06T08:01:59.854Z,97755.94
2018-05-06T08:04:29.007Z,97760.20
2018-05-06T08:06:57.757Z,97761.56
2018-05-06T08:09:28.034Z,97753.56
2018-05-06T08:12:00.150Z,97756.88
2018-05-06T08:14:30.133Z,97755.84
2018-05-06T08:16:59.680Z,97761.40
2018-05-06T08:19:29.096Z,97757.31
2018-05-06T08:21:58.017Z,97755.64
2018-05-06T08:24:27.510Z,97753.64
2018-05-06T08:26:56.528Z,97748.36
2018-05-06T08:29:27.010Z,97762.78
2018-05-06T08:31:56.151Z,97755.59
2018-05-06T08:34:26.216Z,97758.13
2018-05-06T08:36:55.026Z,97769.00
2018-05-06T08:39:24.602Z,97766.44
2018-05-06T08:41:54.153Z,97767.91
2018-05-06T08:44:23.844Z,97766.77
2018-05-06T08:46:52.601Z,97764.05
2018-05-06T08:49:21.359Z,97763.80
2018-05-06T08:51:50.438Z,97765.81
2018-05-06T08:54:20.186Z,97766.19
2018-05-06T08:56:49.058Z,97764.52
2018-05-06T08:59:18.904Z,97762.22
2018-05-06T09:01:47.628Z,97763.42
2018-05-06T09:04:16.452Z,97766.91
2018-05-06T09:06:45.418Z,97761.14
2018-05-06T09:09:14.169Z,97758.69
2018-05-06T09:11:42.954Z,97755.95
2018-05-06T09:14:11.748Z,97750.93
2018-05-06T09:16:41.116Z,97756.88
2018-05-06T09:19:11.477Z,97753.55
2018-05-06T09:21:40.294Z,97751.62
2018-05-06T09:24:11.140Z,97759.15
2018-05-06T09:26:39.939Z,97759.30
2018-05-06T09:29:09.342Z,97747.98
2018-05-06T09:31:38.147Z,97755.77
2018-05-06T09:34:08.743Z,97741.77
2018-05-06T09:36:37.816Z,97745.91
2018-05-06T09:39:07.379Z,97741.70
2018-05-06T09:41:36.138Z,97732.63
2018-05-06T09:44:05.398Z,97735.14
2018-05-06T09:46:34.262Z,97734.39
2018-05-06T09:49:04.500Z,97731.23
2018-05-06T09:51:34.984Z,97732.16
2018-05-06T09:54:05.483Z,97725.40
2018-05-06T09:56:34.234Z,97724.30
2018-05-06T09:59:05.126Z,97731.81
2018-05-06T10:01:37.476Z,97722.95
2018-05-06T10:04:06.585Z,97726.66
2018-05-06T10:06:36.767Z,97723.08
2018-05-06T10:09:06.296Z,97722.47
2018-05-06T10:11:35.818Z,97713.52
2018-05-06T10:14:04.555Z,97708.86
2018-05-06T10:16:34.116Z,97706.84
2018-05-06T10:19:02.866Z,97702.44
2018-05-06T10:21:34.723Z,97703.52
2018-05-06T10:24:03.484Z,97705.13
2018-05-06T10:26:32.223Z,97701.35
2018-05-06T10:29:01.565Z,97694.25
2018-05-06T10:31:30.601Z,97696.95
2018-05-06T10:33:59.346Z,97699.66
2018-05-06T10:36:28.091Z,97697.21
2018-05-06T10:38:56.815Z,97694.29
2018-05-06T10:41:25.574Z,97683.73
2018-05-06T10:43:55.857Z,97683.95
2018-05-06T10:46:24.555Z,97683.64
2018-05-06T10:48:53.778Z,97689.07
2018-05-06T10:51:23.365Z,97682.00
2018-05-06T10:53:53.318Z,97680.17
2018-05-06T10:56:23.521Z,97675.77
2018-05-06T10:58:52.629Z,97678.98
2018-05-06T11:01:22.184Z,97672.97
2018-05-06T11:03:51.019Z,97668.41
2018-05-06T11:06:20.515Z,97666.91
2018-05-06T11:08:49.302Z,97657.41
2018-05-06T11:11:18.826Z,97655.92
2018-05-06T11:13:47.606Z,97655.55
2018-05-06T11:16:16.535Z,97649.78
2018-05-06T11:18:45.329Z,97647.69
2018-05-06T11:21:14.074Z,97652.23
2018-05-06T11:23:51.841Z,97653.47
2018-05-06T11:26:20.621Z,97646.47
2018-05-06T11:28:49.610Z,97645.66
2018-05-06T11:31:18.472Z,97646.73
2018-05-06T11:33:47.239Z,97644.95
2018-05-06T11:36:16.660Z,97644.81
2018-05-06T11:38:45.517Z,97641.80
2018-05-06T11:41:14.997Z,97645.72
2018-05-06T11:43:43.778Z,97641.30
2018-05-06T11:46:12.624Z,97632.93
2018-05-06T11:48:41.412Z,97626.15
2018-05-06T11:51:10.321Z,97626.97
2018-05-06T11:53:39.062Z,97630.91
2018-05-06T11:56:08.604Z,97627.66
2018-05-06T11:58:37.348Z,97621.17
2018-05-06T12:01:06.110Z,97621.52
2018-05-06T12:03:34.852Z,97617.02
2018-05-06T12:06:03.680Z,97617.48
2018-05-06T12:08:32.450Z,97606.75
2018-05-06T12:11:01.218Z,97613.98
2018-05-06T12:13:31.592Z,97617.37
2018-05-06T12:16:00.551Z,97616.42
2018-05-06T12:18:29.393Z,97611.28
2018-05-06T12:20:58.141Z,97615.73
2018-05-06T12:23:27.006Z,97609.56
2018-05-06T12:25:55.779Z,97612.66
2018-05-06T12:28:24.497Z,97616.80
2018-05-06T12:30:54.015Z,97611.31
2018-05-06T12:33:23.592Z,97608.70
2018-05-06T12:35:52.399Z,97607.16
2018-05-06T12:38:21.180Z,97605.08
2018-05-06T12:40:50.015Z,97600.48
2018-05-06T12:43:18.804Z,97601.73
2018-05-06T12:45:47.569Z,97596.23
2018-05-06T12:48:18.181Z,97599.34
2018-05-06T12:50:47.233Z,97601.84
2018-05-06T12:53:15.954Z,97606.07
2018-05-06T12:55:44.824Z,97604.70
2018-05-06T12:58:13.585Z,97603.28
2018-05-06T13:00:42.305Z,97605.31
2018-05-06T13:03:11.066Z,97603.46
2018-05-06T13:05:39.941Z,97599.16
2018-05-06T13:08:08.686Z,97595.23
2018-05-06T13:10:38.248Z,97595.07
2018-05-06T13:13:07.084Z,97594.75
2018-05-06T13:15:36.636Z,97590.31
2018-05-06T13:18:05.414Z,97591.48
2018-05-06T13:20:34.192Z,97585.16
2018-05-06T13:23:02.908Z,97584.35
2018-05-06T13:25:31.683Z,97589.07
2018-05-06T13:28:00.501Z,97589.61
2018-05-06T13:30:29.221Z,97593.12
2018-05-06T13:32:58.023Z,97580.85
2018-05-06T13:35:26.780Z,97589.52
2018-05-06T13:37:56.316Z,97588.58
2018-05-06T13:40:25.090Z,97586.39
2018-05-06T13:42:54.603Z,97596.48
2018-05-06T13:45:24.119Z,97585.58
2018-05-06T13:47:52.872Z,97589.78
2018-05-06T13:50:22.163Z,97586.36
2018-05-06T13:52:50.905Z,97593.09
2018-05-06T13:55:19.713Z,97584.41
2018-05-06T13:57:48.765Z,97591.23
2018-05-06T14:00:19.383Z,97586.83
2018-05-06T14:02:48.580Z,97582.95
2018-05-06T14:05:17.308Z,97591.61
2018-05-06T14:07:46.831Z,97587.16
2018-05-06T14:10:15.581Z,97577.70
2018-05-06T14:12:44.433Z,97582.64
2018-05-06T14:15:13.188Z,97575.98
2018-05-06T14:17:41.950Z,97588.48
2018-05-06T14:20:11.469Z,97582.26
2018-05-06T14:22:40.211Z,97581.53
2018-05-06T14:25:08.986Z,97584.04
2018-05-06T14:27:37.733Z,97583.58
2018-05-06T14:30:06.636Z,97576.56
2018-05-06T14:32:35.341Z,97577.47
2018-05-06T14:35:04.121Z,97574.29
2018-05-06T14:37:32.840Z,97569.79
2018-05-06T14:40:01.665Z,97577.02
2018-05-06T14:42:30.416Z,97575.64
2018-05-06T14:44:59.156Z,97575.89
2018-05-06T14:47:39.548Z,97576.59
2018-05-06T14:50:08.278Z,97577.27
2018-05-06T14:52:37.636Z,97578.88
2018-05-06T14:55:06.420Z,97581.44
2018-05-06T14:57:37.548Z,97581.73
2018-05-06T15:00:06.334Z,97575.81
2018-05-06T15:02:35.050Z,97580.08
2018-05-06T15:05:03.838Z,97580.55
2018-05-06T15:07:32.593Z,97579.59
2018-05-06T15:10:01.349Z,97576.03
2018-05-06T15:12:30.086Z,97566.80
2018-05-06T15:14:59.021Z,97571.04
2018-05-06T15:17:28.572Z,97574.80
2018-05-06T15:19:58.119Z,97575.97
2018-05-06T15:22:26.869Z,97572.00
2018-05-06T15:24:57.191Z,97583.97
2018-05-06T15:27:26.049Z,97585.38
2018-05-06T15:29:54.834Z,97586.47
2018-05-06T15:32:23.565Z,97587.31
2018-05-06T15:34:53.300Z,97580.69
2018-05-06T15:37:22.053Z,97582.19
2018-05-06T15:39:50.788Z,97585.48
2018-05-06T15:42:19.547Z,97590.77
2018-05-06T15:44:49.129Z,97592.66
2018-05-06T15:47:17.863Z,97589.82
2018-05-06T15:49:46.658Z,97592.67
2018-05-06T15:52:15.578Z,97591.33
2018-05-06T15:54:44.313Z,97592.28
2018-05-06T15:57:13.067Z,97595.14
2018-05-06T15:59:42.600Z,97599.07
2018-05-06T16:05:12.252Z,97600.05
2018-05-06T16:07:41.019Z,97595.66
2018-05-06T16:10:09.784Z,97598.80
2018-05-06T16:12:38.628Z,97598.03
2018-05-06T16:15:07.403Z,97599.58
2018-05-06T16:17:37.003Z,97593.80
2018-05-06T16:20:05.670Z,97596.61
2018-05-06T16:22:38.414Z,97595.59
2018-05-06T16:25:17.328Z,97591.80
2018-05-06T16:27:53.213Z,97592.70
2018-05-06T16:30:27.113Z,97594.35
2018-05-06T16:33:02.649Z,97598.73
2018-05-06T16:35:37.421Z,97600.21
2018-05-06T16:38:13.511Z,97604.70
2018-05-06T16:40:48.038Z,97597.89
2018-05-06T16:43:20.089Z,97602.27
2018-05-06T16:45:55.330Z,97605.89
2018-05-06T16:48:27.224Z,97615.92
2018-05-06T16:51:02.506Z,97611.19
2018-05-06T16:53:37.986Z,97612.78
2018-05-06T16:56:15.422Z,97615.64
2018-05-06T16:58:51.003Z,97621.45
2018-05-06T17:01:21.973Z,97622.44
2018-05-06T17:03:55.854Z,97627.01
2018-05-06T17:06:31.322Z,97627.52
2018-05-06T17:09:06.355Z,97634.64
2018-05-06T17:11:41.623Z,97634.91
2018-05-06T17:14:18.839Z,97634.43
2018-05-06T17:16:55.580Z,97640.98
2018-05-06T17:19:29.242Z,97639.34
2018-05-06T17:22:03.020Z,97632.99
2018-05-06T17:24:38.272Z,97638.64
2018-05-06T17:27:13.699Z,97640.63
2018-05-06T17:29:49.975Z,97639.52
2018-05-06T17:35:14.174Z,97653.13
2018-05-06T17:37:49.811Z,97650.42
2018-05-06T17:40:28.693Z,97647.89
2018-05-06T17:43:07.001Z,97652.95
2018-05-06T17:45:39.716Z,97652.59
2018-05-06T17:48:18.610Z,97648.22
2018-05-06T17:50:55.660Z,97646.55
2018-05-06T17:53:27.719Z,97648.20
2018-05-06T17:56:01.244Z,97645.92
2018-05-06T17:58:35.582Z,97653.48
2018-05-06T18:06:24.729Z,97670.86
2018-05-06T18:08:58.559Z,97670.09
2018-05-06T18:11:31.820Z,97676.52
2018-05-06T18:14:09.800Z,97678.63
2018-05-06T18:16:44.114Z,97675.70
2018-05-06T18:19:19.750Z,97683.48
2018-05-06T18:21:50.581Z,97685.25
2018-05-06T18:24:25.069Z,97687.55
2018-05-06T18:26:59.477Z,97684.30
2018-05-06T18:29:34.556Z,97690.74
2018-05-06T18:32:07.796Z,97694.66
2018-05-06T18:34:41.677Z,97699.75
2018-05-06T18:37:15.234Z,97705.21
2018-05-06T18:39:47.316Z,97706.48
2018-05-06T18:42:22.470Z,97706.72
2018-05-06T18:44:55.933Z,97718.83
2018-05-06T18:47:33.540Z,97719.42
2018-05-06T18:50:06.984Z,97720.53
2018-05-06T18:52:43.413Z,97732.39
2018-05-06T18:55:21.687Z,97730.52
2018-05-06T18:57:56.944Z,97733.80
2018-05-06T19:00:31.098Z,97732.03
2018-05-06T19:06:08.278Z,97747.71
2018-05-06T19:08:43.543Z,97741.84
2018-05-06T19:14:00.930Z,97747.69
2018-05-06T19:16:37.051Z,97750.59
2018-05-06T19:19:12.228Z,97752.22
2018-05-06T19:21:47.506Z,97753.44
2018-05-06T19:24:24.552Z,97761.01
2018-05-06T19:29:40.413Z,97763.89
2018-05-06T19:32:16.304Z,97771.86
2018-05-06T19:34:46.031Z,97767.44
2018-05-06T19:37:14.778Z,97771.09
2018-05-06T19:39:43.559Z,97768.16
2018-05-06T19:42:13.115Z,97769.67
2018-05-06T19:44:43.277Z,97774.06
2018-05-06T19:47:17.347Z,97775.94
2018-05-06T19:49:46.242Z,97785.86
2018-05-06T19:52:15.005Z,97785.40
2018-05-06T19:54:43.753Z,97788.16
2018-05-06T19:57:13.900Z,97783.53
2018-05-06T19:59:43.182Z,97785.71
2018-05-06T20:02:13.213Z,97789.66
2018-05-06T20:04:42.531Z,97789.80
2018-05-06T20:07:12.729Z,97793.61
2018-05-06T20:09:42.645Z,97802.70
2018-05-06T20:12:11.412Z,97812.80
2018-05-06T20:14:40.157Z,97804.34
2018-05-06T20:17:09.029Z,97808.02
2018-05-06T20:19:38.521Z,97813.58
2018-05-06T20:22:07.240Z,97819.94
2018-05-06T20:24:36.028Z,97838.38
2018-05-06T20:27:05.571Z,97836.11
2018-05-06T20:29:34.317Z,97841.12
2018-05-06T20:32:03.188Z,97843.55
2018-05-06T20:34:31.960Z,97840.80
2018-05-06T20:37:01.487Z,97831.03
2018-05-06T20:39:30.247Z,97838.78
2018-05-06T20:41:59.828Z,97835.05
2018-05-06T20:44:28.565Z,97833.67
2018-05-06T20:46:59.226Z,97839.47
2018-05-06T20:49:29.392Z,97838.61
2018-05-06T20:51:58.606Z,97836.03
2018-05-06T20:54:28.950Z,97837.83
2018-05-06T20:56:58.849Z,97839.67
2018-05-06T20:59:29.433Z,97836.66
2018-05-06T21:01:58.359Z,97831.42
2018-05-06T21:04:27.406Z,97832.30
2018-05-06T21:06:56.974Z,97825.77
2018-05-06T21:09:25.779Z,97821.71
2018-05-06T21:11:55.323Z,97824.77
2018-05-06T21:14:24.113Z,97829.05
2018-05-06T21:16:52.926Z,97835.15
2018-05-06T21:19:21.663Z,97832.77
2018-05-06T21:21:51.111Z,97829.92
2018-05-06T21:24:20.251Z,97828.63
2018-05-06T21:26:49.000Z,97831.90
2018-05-06T21:29:17.794Z,97833.95
2018-05-06T21:31:52.629Z,97835.89
2018-05-06T21:34:28.845Z,97832.45
2018-05-06T21:37:05.637Z,97836.04
2018-05-06T21:39:37.607Z,97845.94
2018-05-06T21:42:12.944Z,97842.39
2018-05-06T21:44:54.856Z,97834.23
2018-05-06T21:47:35.871Z,97834.83
2018-05-06T21:50:12.388Z,97836.63
2018-05-06T21:52:44.916Z,97840.80
2018-05-06T21:55:23.612Z,97835.64
2018-05-06T21:57:59.523Z,97830.73
2018-05-06T22:00:31.366Z,97831.55
2018-05-06T22:03:06.249Z,97834.25
2018-05-06T22:05:40.836Z,97833.55
2018-05-06T22:08:15.056Z,97834.94
2018-05-06T22:10:47.925Z,97833.22
2018-05-06T22:13:28.250Z,97823.77
2018-05-06T22:16:01.392Z,97819.09
2018-05-06T22:18:36.291Z,97821.28
2018-05-06T22:21:11.630Z,97818.11
2018-05-06T22:23:44.864Z,97822.48
2018-05-06T22:26:21.220Z,97819.63
2018-05-06T22:28:55.545Z,97827.78
2018-05-06T22:31:30.269Z,97826.08
2018-05-06T22:34:06.988Z,97825.24
2018-05-06T22:36:41.392Z,97824.07
2018-05-06T22:39:16.038Z,97822.81
2018-05-06T22:44:32.527Z,97809.16
2018-05-06T22:47:04.503Z,97806.51
2018-05-06T22:49:41.869Z,97807.91
2018-05-06T22:52:14.662Z,97806.32
2018-05-06T22:54:50.449Z,97805.80
2018-05-06T22:57:23.471Z,97806.83
2018-05-06T23:00:00.411Z,97802.00
2018-05-06T23:02:36.352Z,97800.91
2018-05-06T23:05:07.669Z,97796.08
2018-05-06T23:07:42.945Z,97795.91
2018-05-06T23:10:24.039Z,97788.38
2018-05-06T23:12:59.452Z,97789.91
2018-05-06T23:15:33.796Z,97786.83
2018-05-06T23:18:11.658Z,97781.52
2018-05-06T23:20:46.504Z,97781.52
2018-05-06T23:23:19.821Z,97781.54
2018-05-06T23:26:01.905Z,97774.23
2018-05-06T23:28:38.403Z,97779.61
2018-05-06T23:31:15.177Z,97773.09
2018-05-06T23:33:47.416Z,97774.71
2018-05-06T23:36:23.172Z,97765.74
2018-05-06T23:39:01.094Z,97768.94
2018-05-06T23:41:38.068Z,97774.75
2018-05-06T23:44:15.237Z,97759.38
2018-05-06T23:46:50.765Z,97756.66
2018-05-06T23:49:24.553Z,97750.54
2018-05-06T23:51:59.824Z,97751.66
2018-05-06T23:54:35.888Z,97746.86
2018-05-06T23:57:10.716Z,97749.52
2018-05-06T23:59:45.996Z,97752.46
